KHUA

Redstone AAF Airport

Redstone Arsnl Huntsville, Alabama, USA
METAR KHUA 151758Z AUTO 26007KT 8SM OVC015 16/12 A2985 RMK AO2 SLP107 T01620122 10162 20123 58009
Observed Flight Rules
Feb-15 @ 17:58 UTC (an hour ago) Marginal Visual Flight Rules
Wind Visibility Clouds
260° at 7 knots 8 miles
  • Overcast at 1,500' AGL
Temperatures Readings
Current 16°C / 61°F
Dewpoint 12°C / 54°F
Humidity 77%
Altimeter 29.85" Hg
Pressure 1010.7 hPa
Elevation 209
METAR KHUA 151758Z AUTO 26007KT 8SM OVC015 16/12 A2985 RMK AO2 SLP107 T01620122 10162 20123 58009
Observed Flight Rules
Feb-15 @ 17:58 UTC
(an hour ago)
MVFR
Wind Visibility
260° at 7 knots 8 miles
Clouds
  • Overcast at 1,500' AGL
Temperature Dewpoint
16°C / 61°F 12°C / 54°F
Humidity Altimeter Pressure
77% 29.85" Hg 1010.7 hPa